Time,TemperatureF,DewpointF,PressureIn,WindDirection,WindDirectionDegrees,WindSpeedMPH,WindSpeedGustMPH,Humidity,HourlyPrecipIn,Conditions,Clouds,dailyrainin,SoftwareType,DateUTC
2013-01-29 00:03:00,79.0,-99.9,30.09,ENE,70,16.0,20.0,-999,-99.99,,,-99.99,,2013-01-29 04:03:00,
2013-01-29 00:12:00,79.0,-99.9,30.09,ENE,70,16.0,20.0,-999,-99.99,,,-99.99,,2013-01-29 04:12:00,
2013-01-29 00:22:00,79.0,-99.9,30.09,ENE,70,16.0,20.0,-999,-99.99,,,-99.99,,2013-01-29 04:22:00,
2013-01-29 00:30:00,79.0,-99.9,30.08,ENE,70,16.0,22.0,-999,-99.99,,,-99.99,,2013-01-29 04:30:00,
2013-01-29 00:32:00,79.0,-99.9,30.08,ENE,70,16.0,20.0,-999,-99.99,,,-99.99,,2013-01-29 04:32:00,
2013-01-29 00:42:00,79.0,-99.9,30.08,ENE,70,16.0,20.0,-999,-99.99,,,-99.99,,2013-01-29 04:42:00,
2013-01-29 00:52:00,79.0,-99.9,30.08,ENE,70,16.0,20.0,-999,-99.99,,,-99.99,,2013-01-29 04:52:00,
2013-01-29 01:04:00,79.0,-99.9,30.08,ENE,70,16.0,22.0,-999,-99.99,,,-99.99,,2013-01-29 05:04:00,
2013-01-29 01:12:00,79.0,-99.9,30.08,ENE,70,16.0,22.0,-999,-99.99,,,-99.99,,2013-01-29 05:12:00,
2013-01-29 01:22:00,79.0,-99.9,30.08,ENE,70,16.0,22.0,-999,-99.99,,,-99.99,,2013-01-29 05:22:00,
2013-01-29 02:02:00,79.0,-99.9,30.07,ENE,70,18.0,20.0,-999,-99.99,,,-99.99,,2013-01-29 06:02:00,
2013-01-29 02:11:00,79.0,-99.9,30.07,ENE,70,18.0,20.0,-999,-99.99,,,-99.99,,2013-01-29 06:11:00,
2013-01-29 02:22:00,79.0,-99.9,30.07,ENE,70,18.0,20.0,-999,-99.99,,,-99.99,,2013-01-29 06:22:00,
2013-01-29 02:32:00,78.0,-99.9,30.06,ENE,70,16.0,18.0,-999,-99.99,,,-99.99,,2013-01-29 06:32:00,
2013-01-29 02:42:00,78.0,-99.9,30.06,ENE,70,16.0,18.0,-999,-99.99,,,-99.99,,2013-01-29 06:42:00,
2013-01-29 02:52:00,78.0,-99.9,30.06,ENE,70,16.0,18.0,-999,-99.99,,,-99.99,,2013-01-29 06:52:00,
2013-01-29 03:02:00,79.0,-99.9,30.05,ENE,70,18.0,20.0,-999,-99.99,,,-99.99,,2013-01-29 07:02:00,
2013-01-29 03:11:00,79.0,-99.9,30.05,ENE,70,18.0,20.0,-999,-99.99,,,-99.99,,2013-01-29 07:11:00,
2013-01-29 03:21:00,79.0,-99.9,30.05,ENE,70,18.0,20.0,-999,-99.99,,,-99.99,,2013-01-29 07:21:00,
2013-01-29 03:32:00,78.0,-99.9,30.03,ENE,70,13.0,18.0,-999,-99.99,,,-99.99,,2013-01-29 07:32:00,
2013-01-29 03:42:00,78.0,-99.9,30.03,ENE,70,13.0,18.0,-999,-99.99,,,-99.99,,2013-01-29 07:42:00,
2013-01-29 03:52:00,78.0,-99.9,30.03,ENE,70,13.0,18.0,-999,-99.99,,,-99.99,,2013-01-29 07:52:00,
2013-01-29 04:02:00,78.0,-99.9,30.03,ENE,70,16.0,20.0,-999,-99.99,,,-99.99,,2013-01-29 08:02:00,
2013-01-29 04:11:00,78.0,-99.9,30.03,ENE,70,16.0,20.0,-999,-99.99,,,-99.99,,2013-01-29 08:11:00,
2013-01-29 04:22:00,78.0,-99.9,30.03,ENE,70,16.0,20.0,-999,-99.99,,,-99.99,,2013-01-29 08:22:00,
2013-01-29 04:32:00,78.0,-99.9,30.02,ENE,70,13.0,18.0,-999,-99.99,,,-99.99,,2013-01-29 08:32:00,
2013-01-29 04:42:00,78.0,-99.9,30.02,ENE,70,13.0,18.0,-999,-99.99,,,-99.99,,2013-01-29 08:42:00,
2013-01-29 04:52:00,78.0,-99.9,30.02,ENE,70,13.0,18.0,-999,-99.99,,,-99.99,,2013-01-29 08:52:00,
2013-01-29 05:02:00,79.0,-99.9,30.02,East,80,18.0,22.0,-999,-99.99,,,-99.99,,2013-01-29 09:02:00,
2013-01-29 05:11:00,79.0,-99.9,30.02,East,80,18.0,22.0,-999,-99.99,,,-99.99,,2013-01-29 09:11:00,
2013-01-29 05:22:00,79.0,-99.9,30.02,East,80,18.0,22.0,-999,-99.99,,,-99.99,,2013-01-29 09:22:00,
2013-01-29 05:32:00,78.0,-99.9,30.02,East,100,16.0,22.0,-999,-99.99,,,-99.99,,2013-01-29 09:32:00,
2013-01-29 05:42:00,78.0,-99.9,30.02,East,100,16.0,22.0,-999,-99.99,,,-99.99,,2013-01-29 09:42:00,
2013-01-29 05:52:00,78.0,-99.9,30.02,East,100,16.0,22.0,-999,-99.99,,,-99.99,,2013-01-29 09:52:00,
2013-01-29 06:02:00,78.0,-99.9,30.03,East,80,16.0,20.0,-999,-99.99,,,-99.99,,2013-01-29 10:02:00,
2013-01-29 06:11:00,78.0,-99.9,30.03,East,80,16.0,20.0,-999,-99.99,,,-99.99,,2013-01-29 10:11:00,
2013-01-29 06:22:00,78.0,-99.9,30.03,East,80,16.0,20.0,-999,-99.99,,,-99.99,,2013-01-29 10:22:00,
2013-01-29 06:32:00,78.0,-99.9,30.03,East,80,18.0,20.0,-999,-99.99,,,-99.99,,2013-01-29 10:32:00,
2013-01-29 06:42:00,78.0,-99.9,30.03,East,80,18.0,20.0,-999,-99.99,,,-99.99,,2013-01-29 10:42:00,
2013-01-29 06:52:00,78.0,-99.9,30.03,East,80,18.0,20.0,-999,-99.99,,,-99.99,,2013-01-29 10:52:00,
2013-01-29 07:02:00,78.0,-99.9,30.04,ENE,70,18.0,22.0,-999,-99.99,,,-99.99,,2013-01-29 11:02:00,
2013-01-29 07:12:00,78.0,-99.9,30.04,ENE,70,18.0,22.0,-999,-99.99,,,-99.99,,2013-01-29 11:12:00,
2013-01-29 07:22:00,78.0,-99.9,30.04,ENE,70,18.0,22.0,-999,-99.99,,,-99.99,,2013-01-29 11:22:00,
2013-01-29 07:32:00,78.0,-99.9,30.04,East,80,18.0,22.0,-999,-99.99,,,-99.99,,2013-01-29 11:32:00,
2013-01-29 07:42:00,78.0,-99.9,30.04,East,80,18.0,22.0,-999,-99.99,,,-99.99,,2013-01-29 11:42:00,
2013-01-29 07:53:00,78.0,-99.9,30.04,East,80,18.0,22.0,-999,-99.99,,,-99.99,,2013-01-29 11:53:00,
2013-01-29 08:03:00,79.0,-99.9,30.06,ENE,70,16.0,20.0,-999,-99.99,,,-99.99,,2013-01-29 12:03:00,
2013-01-29 08:12:00,79.0,-99.9,30.06,ENE,70,16.0,20.0,-999,-99.99,,,-99.99,,2013-01-29 12:12:00,
2013-01-29 08:22:00,79.0,-99.9,30.06,ENE,70,16.0,20.0,-999,-99.99,,,-99.99,,2013-01-29 12:22:00,
2013-01-29 08:33:00,79.0,-99.9,30.06,ENE,70,18.0,20.0,-999,-99.99,,,-99.99,,2013-01-29 12:33:00,
2013-01-29 08:43:00,79.0,-99.9,30.06,ENE,70,18.0,20.0,-999,-99.99,,,-99.99,,2013-01-29 12:43:00,
2013-01-29 08:53:00,79.0,-99.9,30.06,ENE,70,18.0,20.0,-999,-99.99,,,-99.99,,2013-01-29 12:53:00,
2013-01-29 09:02:00,79.0,-99.9,30.07,ENE,70,16.0,20.0,-999,-99.99,,,-99.99,,2013-01-29 13:02:00,
2013-01-29 09:12:00,79.0,-99.9,30.07,ENE,70,16.0,20.0,-999,-99.99,,,-99.99,,2013-01-29 13:12:00,
2013-01-29 09:23:00,79.0,-99.9,30.07,ENE,70,16.0,20.0,-999,-99.99,,,-99.99,,2013-01-29 13:23:00,
2013-01-29 09:32:00,79.0,-99.9,30.07,East,80,18.0,20.0,-999,-99.99,,,-99.99,,2013-01-29 13:32:00,
2013-01-29 09:43:00,79.0,-99.9,30.07,East,80,18.0,20.0,-999,-99.99,,,-99.99,,2013-01-29 13:43:00,
2013-01-29 09:53:00,79.0,-99.9,30.07,East,80,18.0,20.0,-999,-99.99,,,-99.99,,2013-01-29 13:53:00,
2013-01-29 10:02:00,79.0,-99.9,30.09,ENE,70,16.0,20.0,-999,-99.99,,,-99.99,,2013-01-29 14:02:00,
2013-01-29 10:12:00,79.0,-99.9,30.09,ENE,70,16.0,20.0,-999,-99.99,,,-99.99,,2013-01-29 14:12:00,
2013-01-29 10:22:00,79.0,-99.9,30.09,ENE,70,16.0,20.0,-999,-99.99,,,-99.99,,2013-01-29 14:22:00,
2013-01-29 10:33:00,77.0,-99.9,30.09,East,80,18.0,27.0,-999,-99.99,,,-99.99,,2013-01-29 14:33:00,
2013-01-29 10:43:00,77.0,-99.9,30.09,East,80,18.0,27.0,-999,-99.99,,,-99.99,,2013-01-29 14:43:00,
2013-01-29 10:53:00,77.0,-99.9,30.09,East,80,18.0,27.0,-999,-99.99,,,-99.99,,2013-01-29 14:53:00,
2013-01-29 11:03:00,76.0,-99.9,30.10,ENE,60,16.0,20.0,-999,-99.99,,,-99.99,,2013-01-29 15:03:00,
2013-01-29 11:12:00,76.0,-99.9,30.10,ENE,60,16.0,20.0,-999,-99.99,,,-99.99,,2013-01-29 15:12:00,
2013-01-29 11:22:00,76.0,-99.9,30.10,ENE,60,16.0,20.0,-999,-99.99,,,-99.99,,2013-01-29 15:22:00,
2013-01-29 11:33:00,78.0,-99.9,30.09,ENE,70,16.0,20.0,-999,-99.99,,,-99.99,,2013-01-29 15:33:00,
2013-01-29 11:43:00,78.0,-99.9,30.09,ENE,70,16.0,20.0,-999,-99.99,,,-99.99,,2013-01-29 15:43:00,
2013-01-29 11:53:00,78.0,-99.9,30.09,ENE,70,16.0,20.0,-999,-99.99,,,-99.99,,2013-01-29 15:53:00,
2013-01-29 12:03:00,78.0,-99.9,30.08,ENE,70,16.0,22.0,-999,-99.99,,,-99.99,,2013-01-29 16:03:00,
2013-01-29 12:13:00,78.0,-99.9,30.08,ENE,70,16.0,22.0,-999,-99.99,,,-99.99,,2013-01-29 16:13:00,
2013-01-29 12:23:00,78.0,-99.9,30.08,ENE,70,16.0,22.0,-999,-99.99,,,-99.99,,2013-01-29 16:23:00,
2013-01-29 12:33:00,77.0,-99.9,30.07,East,80,13.0,18.0,-999,-99.99,,,-99.99,,2013-01-29 16:33:00,
2013-01-29 12:43:00,77.0,-99.9,30.07,East,80,13.0,18.0,-999,-99.99,,,-99.99,,2013-01-29 16:43:00,
2013-01-29 12:53:00,77.0,-99.9,30.07,East,80,13.0,18.0,-999,-99.99,,,-99.99,,2013-01-29 16:53:00,
2013-01-29 13:03:00,77.0,-99.9,30.06,East,80,13.0,16.0,-999,-99.99,,,-99.99,,2013-01-29 17:03:00,
2013-01-29 13:12:00,77.0,-99.9,30.06,East,80,13.0,16.0,-999,-99.99,,,-99.99,,2013-01-29 17:12:00,
2013-01-29 13:22:00,77.0,-99.9,30.06,East,80,13.0,16.0,-999,-99.99,,,-99.99,,2013-01-29 17:22:00,
2013-01-29 13:33:00,78.0,-99.9,30.04,East,80,16.0,20.0,-999,-99.99,,,-99.99,,2013-01-29 17:33:00,
2013-01-29 13:43:00,78.0,-99.9,30.04,East,80,16.0,20.0,-999,-99.99,,,-99.99,,2013-01-29 17:43:00,
2013-01-29 13:53:00,78.0,-99.9,30.04,East,80,16.0,20.0,-999,-99.99,,,-99.99,,2013-01-29 17:53:00,
2013-01-29 14:05:00,79.0,-99.9,30.03,ENE,70,13.0,18.0,-999,-99.99,,,-99.99,,2013-01-29 18:05:00,
2013-01-29 14:13:00,79.0,-99.9,30.03,ENE,70,13.0,18.0,-999,-99.99,,,-99.99,,2013-01-29 18:13:00,
2013-01-29 14:22:00,79.0,-99.9,30.03,ENE,70,13.0,18.0,-999,-99.99,,,-99.99,,2013-01-29 18:22:00,
2013-01-29 14:34:00,78.0,-99.9,30.02,ENE,70,18.0,22.0,-999,-99.99,,,-99.99,,2013-01-29 18:34:00,
2013-01-29 14:43:00,78.0,-99.9,30.02,ENE,70,18.0,22.0,-999,-99.99,,,-99.99,,2013-01-29 18:43:00,
2013-01-29 14:52:00,78.0,-99.9,30.02,ENE,70,18.0,22.0,-999,-99.99,,,-99.99,,2013-01-29 18:52:00,
2013-01-29 15:03:00,78.0,-99.9,30.01,East,80,18.0,20.0,-999,-99.99,,,-99.99,,2013-01-29 19:03:00,
2013-01-29 15:12:00,78.0,-99.9,30.01,East,80,18.0,20.0,-999,-99.99,,,-99.99,,2013-01-29 19:12:00,
2013-01-29 15:23:00,78.0,-99.9,30.01,East,80,18.0,20.0,-999,-99.99,,,-99.99,,2013-01-29 19:23:00,
2013-01-29 15:33:00,78.0,-99.9,30.01,East,80,18.0,22.0,-999,-99.99,,,-99.99,,2013-01-29 19:33:00,
2013-01-29 15:42:00,78.0,-99.9,30.01,East,80,18.0,22.0,-999,-99.99,,,-99.99,,2013-01-29 19:42:00,
2013-01-29 15:52:00,78.0,-99.9,30.01,East,80,18.0,22.0,-999,-99.99,,,-99.99,,2013-01-29 19:52:00,
2013-01-29 16:03:00,78.0,-99.9,30.00,East,90,18.0,22.0,-999,-99.99,,,-99.99,,2013-01-29 20:03:00,
2013-01-29 16:13:00,78.0,-99.9,30.00,East,90,18.0,22.0,-999,-99.99,,,-99.99,,2013-01-29 20:13:00,
2013-01-29 16:23:00,78.0,-99.9,30.00,East,90,18.0,22.0,-999,-99.99,,,-99.99,,2013-01-29 20:23:00,
2013-01-29 16:33:00,79.0,-99.9,30.00,East,90,16.0,18.0,-999,-99.99,,,-99.99,,2013-01-29 20:33:00,
2013-01-29 16:43:00,79.0,-99.9,30.00,East,90,16.0,18.0,-999,-99.99,,,-99.99,,2013-01-29 20:43:00,
2013-01-29 16:54:00,79.0,-99.9,30.00,East,90,16.0,18.0,-999,-99.99,,,-99.99,,2013-01-29 20:54:00,
2013-01-29 17:03:00,79.0,-99.9,30.00,East,80,16.0,20.0,-999,-99.99,,,-99.99,,2013-01-29 21:03:00,
2013-01-29 17:13:00,79.0,-99.9,30.00,East,80,16.0,20.0,-999,-99.99,,,-99.99,,2013-01-29 21:13:00,
2013-01-29 17:22:00,79.0,-99.9,30.00,East,80,16.0,20.0,-999,-99.99,,,-99.99,,2013-01-29 21:22:00,
2013-01-29 17:34:00,79.0,-99.9,30.01,ENE,70,16.0,18.0,-999,-99.99,,,-99.99,,2013-01-29 21:34:00,
2013-01-29 17:42:00,79.0,-99.9,30.01,ENE,70,16.0,18.0,-999,-99.99,,,-99.99,,2013-01-29 21:42:00,
2013-01-29 17:53:00,79.0,-99.9,30.01,ENE,70,16.0,18.0,-999,-99.99,,,-99.99,,2013-01-29 21:53:00,
2013-01-29 18:03:00,78.0,-99.9,30.02,ENE,70,16.0,18.0,-999,-99.99,,,-99.99,,2013-01-29 22:03:00,
2013-01-29 18:12:00,78.0,-99.9,30.02,ENE,70,16.0,18.0,-999,-99.99,,,-99.99,,2013-01-29 22:12:00,
2013-01-29 18:22:00,78.0,-99.9,30.02,ENE,70,16.0,18.0,-999,-99.99,,,-99.99,,2013-01-29 22:22:00,
2013-01-29 18:33:00,78.0,-99.9,30.02,ENE,70,13.0,18.0,-999,-99.99,,,-99.99,,2013-01-29 22:33:00,
2013-01-29 18:43:00,78.0,-99.9,30.02,ENE,70,13.0,18.0,-999,-99.99,,,-99.99,,2013-01-29 22:43:00,
2013-01-29 18:53:00,78.0,-99.9,30.02,ENE,70,13.0,18.0,-999,-99.99,,,-99.99,,2013-01-29 22:53:00,
2013-01-29 19:03:00,78.0,-99.9,30.02,ENE,60,13.0,18.0,-999,-99.99,,,-99.99,,2013-01-29 23:03:00,
2013-01-29 19:12:00,78.0,-99.9,30.02,ENE,60,13.0,18.0,-999,-99.99,,,-99.99,,2013-01-29 23:12:00,
2013-01-29 19:23:00,78.0,-99.9,30.02,ENE,60,13.0,18.0,-999,-99.99,,,-99.99,,2013-01-29 23:23:00,
2013-01-29 19:33:00,79.0,-99.9,30.03,ENE,70,16.0,20.0,-999,-99.99,,,-99.99,,2013-01-29 23:33:00,
2013-01-29 19:42:00,79.0,-99.9,30.03,ENE,70,16.0,20.0,-999,-99.99,,,-99.99,,2013-01-29 23:42:00,
2013-01-29 19:53:00,79.0,-99.9,30.03,ENE,70,16.0,20.0,-999,-99.99,,,-99.99,,2013-01-29 23:53:00,
2013-01-29 20:03:00,79.0,-99.9,30.03,ENE,70,16.0,20.0,-999,-99.99,,,-99.99,,2013-01-30 00:03:00,
2013-01-29 20:12:00,79.0,-99.9,30.03,ENE,70,16.0,20.0,-999,-99.99,,,-99.99,,2013-01-30 00:12:00,
2013-01-29 20:22:00,79.0,-99.9,30.03,ENE,70,16.0,20.0,-999,-99.99,,,-99.99,,2013-01-30 00:22:00,
2013-01-29 20:33:00,79.0,-99.9,30.04,ENE,70,16.0,20.0,-999,-99.99,,,-99.99,,2013-01-30 00:33:00,
2013-01-29 20:43:00,79.0,-99.9,30.04,ENE,70,16.0,20.0,-999,-99.99,,,-99.99,,2013-01-30 00:43:00,
2013-01-29 20:53:00,79.0,-99.9,30.04,ENE,70,16.0,20.0,-999,-99.99,,,-99.99,,2013-01-30 00:53:00,
2013-01-29 21:02:00,78.0,-99.9,30.05,ENE,60,16.0,20.0,-999,-99.99,,,-99.99,,2013-01-30 01:02:00,
2013-01-29 21:12:00,78.0,-99.9,30.05,ENE,60,16.0,20.0,-999,-99.99,,,-99.99,,2013-01-30 01:12:00,
2013-01-29 21:23:00,78.0,-99.9,30.05,ENE,60,16.0,20.0,-999,-99.99,,,-99.99,,2013-01-30 01:23:00,
2013-01-29 21:32:00,78.0,-99.9,30.06,ENE,70,16.0,22.0,-999,-99.99,,,-99.99,,2013-01-30 01:32:00,
2013-01-29 21:43:00,78.0,-99.9,30.06,ENE,70,16.0,22.0,-999,-99.99,,,-99.99,,2013-01-30 01:43:00,
2013-01-29 21:52:00,78.0,-99.9,30.06,ENE,70,16.0,22.0,-999,-99.99,,,-99.99,,2013-01-30 01:52:00,
2013-01-29 22:03:00,78.0,-99.9,30.06,ENE,70,18.0,20.0,-999,-99.99,,,-99.99,,2013-01-30 02:03:00,
2013-01-29 22:13:00,78.0,-99.9,30.06,ENE,70,18.0,20.0,-999,-99.99,,,-99.99,,2013-01-30 02:13:00,
2013-01-29 22:22:00,78.0,-99.9,30.06,ENE,70,18.0,20.0,-999,-99.99,,,-99.99,,2013-01-30 02:22:00,
2013-01-29 22:30:00,79.0,-99.9,30.06,East,80,18.0,22.0,-999,-99.99,,,-99.99,,2013-01-30 02:30:00,
2013-01-29 22:33:00,78.0,-99.9,30.06,ENE,70,18.0,22.0,-999,-99.99,,,-99.99,,2013-01-30 02:33:00,
2013-01-29 22:42:00,78.0,-99.9,30.06,ENE,70,18.0,22.0,-999,-99.99,,,-99.99,,2013-01-30 02:42:00,
2013-01-29 22:53:00,78.0,-99.9,30.06,ENE,70,18.0,22.0,-999,-99.99,,,-99.99,,2013-01-30 02:53:00,
2013-01-29 23:03:00,79.0,-99.9,30.06,East,80,18.0,22.0,-999,-99.99,,,-99.99,,2013-01-30 03:03:00,
2013-01-29 23:12:00,79.0,-99.9,30.06,East,80,18.0,22.0,-999,-99.99,,,-99.99,,2013-01-30 03:12:00,
2013-01-29 23:22:00,79.0,-99.9,30.06,East,80,18.0,22.0,-999,-99.99,,,-99.99,,2013-01-30 03:22:00,